Weather observations for the past three days for
Fort Myers, Southwest Florida International Airport
| Date | Time (edt) | Wind (kph) | Vis. (km) | Weather | Sky Cond. | Temperature (ºC) | Relative Humidity | Wind Chill (°C) | Heat Index (°C) | Pressure | Precipitation (cm) | ||||||
|---|---|---|---|---|---|---|---|---|---|---|---|---|---|---|---|---|---|
| Air | Dwpt | 6 hour | altimeter (cm) | sea level (mb) | 1 hr | 3 hr | 6 hr | ||||||||||
| Max. | Min. | ||||||||||||||||
| 10 | 11:53 | SW 11 | 16.09 | A Few Clouds | FEW040 | 32.8 | 22.2 | 54% | 37 | 76.25 | 1016.3 | ||||||
| 10 | 10:53 | S 11 | 16.09 | A Few Clouds | FEW028 | 31.1 | 23.9 | 66% | 37 | 76.28 | 1016.6 | ||||||
| 10 | 09:53 | S 7 | 16.09 | Fair | CLR | 28.9 | 24.4 | 77% | 34 | 76.25 | 1016.3 | ||||||
| 10 | 08:53 | SE 9 | 16.09 | Fair | CLR | 27.2 | 24.4 | 85% | 31 | 76.25 | 1016.1 | ||||||
| 10 | 07:53 | E 7 | 14.48 | Fair | CLR | 24.4 | 23.9 | 26.1 | 23.9 | 97% | 24 | 76.2 | 1015.5 | ||||
| 10 | 06:53 | E 6 | 16.09 | Fair | CLR | 23.9 | 23.3 | 96% | 23 | 76.15 | 1014.8 | ||||||
| 10 | 05:53 | SE 6 | 16.09 | Fair | CLR | 24.4 | 23.9 | 97% | 24 | 76.07 | 1013.9 | ||||||
| 10 | 04:53 | SE 6 | 16.09 | Fair | CLR | 24.4 | 23.9 | 97% | 24 | 76.05 | 1013.7 | ||||||
| 10 | 03:53 | Calm | 16.09 | Fair | CLR | 25 | 23.9 | 94% | 26 | 76.07 | 1013.8 | ||||||
| 10 | 02:53 | Calm | 16.09 | A Few Clouds | FEW120 | 25.6 | 24.4 | 93% | 27 | 76.1 | 1014.1 | ||||||
| 10 | 01:53 | NE 9 | 16.09 | Mostly Cloudy | BKN085 BKN120 | 26.1 | 24.4 | 28.9 | 25.6 | 90% | 28 | 76.15 | 1014.8 | ||||
| 10 | 00:53 | Calm | 16.09 | Overcast | BKN085 OVC110 | 26.1 | 24.4 | 90% | 28 | 76.15 | 1014.9 | ||||||
| 09 | 23:53 | Calm | 16.09 | Overcast | OVC110 | 26.7 | 24.4 | 87% | 30 | 76.15 | 1014.8 | ||||||
| 09 | 22:53 | Calm | 16.09 | Fair | CLR | 26.7 | 24.4 | 87% | 30 | 76.12 | 1014.5 | ||||||
| 09 | 21:53 | SW 11 | 16.09 | Fair | CLR | 26.7 | 23.9 | 85% | 29 | 76.07 | 1013.9 | ||||||
| 09 | 20:53 | SW 9 | 16.09 | Fair | CLR | 27.8 | 23.9 | 79% | 32 | 76.02 | 1013.1 | ||||||
| 09 | 19:53 | W 15 | 16.09 | Fair | CLR | 28.3 | 22.2 | 34.4 | 28.3 | 70% | 31 | 75.97 | 1012.4 | ||||
| 09 | 18:53 | W 17 | 16.09 | Fair | CLR | 30 | 21.7 | 61% | 33 | 75.92 | 1011.9 | ||||||
| 09 | 17:53 | W 24 | 16.09 | Fair | CLR | 31.7 | 19.4 | 48% | 33 | 75.9 | 1011.6 | ||||||
| 09 | 16:53 | W 22 | 16.09 | Fair | CLR | 33.3 | 17.2 | 38% | 34 | 75.92 | 1011.8 | ||||||
| 09 | 15:53 | SW 20 | 16.09 | Fair | CLR | 33.9 | 18.9 | 41% | 36 | 75.92 | 1011.9 | ||||||
| 09 | 14:53 | SW 24 G 35 | 16.09 | Mostly Cloudy | BKN100 | 33.3 | 20.6 | 47% | 36 | 75.97 | 1012.6 | ||||||
| 09 | 13:53 | SW 17 G 30 | 16.09 | Mostly Cloudy | BKN100 | 32.8 | 22.8 | 33.3 | 23.9 | 56% | 38 | 76.02 | 1013.1 | ||||
| 09 | 12:53 | W 15 G 30 | 16.09 | A Few Clouds | FEW050 | 32.8 | 22.2 | 54% | 37 | 76.07 | 1013.8 | ||||||
| 09 | 11:53 | W 9 | 16.09 | Fair | CLR | 31.7 | 20 | 50% | 34 | 76.1 | 1014.2 | ||||||
| 09 | 10:53 | SW 15 | 16.09 | A Few Clouds | FEW095 | 31.1 | 21.1 | 55% | 34 | 76.1 | 1014.2 | ||||||
| 09 | 09:53 | S 13 | 16.09 | Fair | CLR | 28.9 | 22.2 | 67% | 32 | 76.1 | 1014.1 | ||||||
| 09 | 08:53 | S 19 | 16.09 | Fair | CLR | 27.2 | 21.7 | 72% | 29 | 76.05 | 1013.5 | ||||||
| 09 | 07:53 | SE 11 | 16.09 | Fair | CLR | 23.9 | 21.7 | 26.1 | 22.8 | 88% | 24 | 76.02 | 1013.2 | ||||
| 09 | 06:53 | E 7 | 16.09 | Fair | CLR | 22.8 | 21.1 | 90% | 76 | 1013.0 | |||||||
| 09 | 05:53 | NE 7 | 16.09 | Fair | CLR | 23.9 | 21.7 | 88% | 24 | 76 | 1012.8 | ||||||
| 09 | 04:53 | NE 6 | 16.09 | Fair | CLR | 23.9 | 21.7 | 88% | 24 | 76 | 1012.7 | ||||||
| 09 | 03:53 | N 7 | 16.09 | Fair | CLR | 25 | 22.2 | 85% | 26 | 76 | 1013.0 | ||||||
| 09 | 02:53 | N 6 | 16.09 | Fair | CLR | 25.6 | 22.2 | 82% | 27 | 76.02 | 1013.4 | ||||||
| 09 | 01:53 | NW 7 | 16.09 | Partly Cloudy | SCT065 | 26.1 | 22.8 | 30.6 | 26.1 | 82% | 28 | 76.07 | 1013.9 | ||||
| 09 | 00:53 | NW 7 | 16.09 | Fair | CLR | 26.1 | 23.3 | 85% | 28 | 76.12 | 1014.5 | ||||||
| 08 | 23:53 | N 6 | 16.09 | Partly Cloudy | SCT060 | 26.7 | 23.3 | 82% | 29 | 76.15 | 1014.7 | ||||||
| 08 | 22:53 | NW 6 | 16.09 | Fair | CLR | 26.7 | 23.3 | 82% | 29 | 76.1 | 1014.3 | ||||||
| 08 | 21:53 | NW 6 | 16.09 | Fair | CLR | 28.3 | 21.1 | 65% | 31 | 76.05 | 1013.7 | ||||||
| 08 | 20:53 | W 9 | 16.09 | Fair | CLR | 28.9 | 21.1 | 63% | 31 | 76 | 1012.8 | ||||||
| 08 | 19:53 | W 9 | 16.09 | Fair | CLR | 30.6 | 21.1 | 34.4 | 30.6 | 57% | 33 | 75.92 | 1011.9 | ||||
| 08 | 18:53 | W 11 | 16.09 | A Few Clouds | FEW047 | 31.7 | 21.7 | 55% | 35 | 75.9 | 1011.6 | ||||||
| 08 | 17:53 | NW 11 | 16.09 | A Few Clouds | FEW060 | 33.3 | 21.7 | 51% | 37 | 75.9 | 1011.4 | ||||||
| 08 | 16:53 | SW 9 | 16.09 | A Few Clouds | FEW065 | 32.8 | 22.2 | 54% | 37 | 75.9 | 1011.7 | ||||||
| 08 | 15:53 | SE 17 | 16.09 | Overcast | OVC060 | 32.8 | 20 | 47% | 35 | 75.95 | 1012.3 | ||||||
| 08 | 14:53 | NW 15 | 16.09 | Partly Cloudy | SCT060 | 33.9 | 19.4 | 42% | 36 | 76.05 | 1013.5 | ||||||
| 08 | 13:53 | Calm | 16.09 | Partly Cloudy | SCT050 | 32.2 | 19.4 | 32.8 | 21.1 | 47% | 34 | 76.1 | 1014.2 | ||||
| 08 | 12:53 | S 6 | 16.09 | A Few Clouds | FEW050 | 31.1 | 19.4 | 50% | 33 | 76.15 | 1015.0 | ||||||
| 08 | 11:53 | N 13 | 16.09 | Fair | CLR | 31.1 | 20.6 | 54% | 34 | 76.23 | 1016.0 | ||||||
| 08 | 10:53 | NE 13 | 16.09 | Partly Cloudy | SCT035 | 28.9 | 22.2 | 67% | 32 | 76.25 | 1016.4 | ||||||
| 08 | 09:53 | NE 9 | 16.09 | Fair | CLR | 27.2 | 22.8 | 77% | 30 | 76.25 | 1016.3 | ||||||
| 08 | 08:53 | NE 6 | 0.80 | Fog | VV002 | 22.2 | 22.2 | 100% | 76.25 | 1016.1 | |||||||
| 08 | 07:53 | SE 6 | 0.40 | Fog | VV002 | 21.1 | 21.1 | 23.9 | 20.6 | 100% | 76.2 | 1015.6 | |||||
| 08 | 06:53 | E 7 | 0.40 | Fog | VV002 | 21.1 | 21.1 | 100% | 76.15 | 1014.8 | |||||||
| 08 | 05:52 | E 9 | 0.40 | Fog | VV002 | 20.6 | 20.6 | 100% | 76.07 | 1013.9 | |||||||
| 08 | 04:53 | Calm | 14.48 | A Few Clouds | FEW003 | 21.1 | 20 | 93% | 76.05 | 1013.7 | |||||||
| 08 | 03:53 | Calm | 14.48 | Fair | CLR | 22.8 | 22.2 | 96% | 76.07 | 1013.8 | |||||||
| 08 | 02:53 | Calm | 16.09 | Fair | CLR | 23.3 | 22.2 | 94% | 76.07 | 1014.0 | |||||||
| 08 | 01:53 | Calm | 14.48 | Fair | CLR | 22.8 | 21.7 | 28.9 | 22.8 | 94% | 76.1 | 1014.1 | |||||
| 08 | 00:53 | Calm | 16.09 | Fair | CLR | 23.9 | 22.8 | 94% | 23 | 76.12 | 1014.6 | ||||||
| 07 | 23:53 | Calm | 16.09 | Fair | CLR | 24.4 | 23.3 | 94% | 24 | 76.12 | 1014.7 | ||||||
| 07 | 22:53 | NW 6 | 16.09 | Fair | CLR | 25 | 22.8 | 88% | 26 | 76.12 | 1014.7 | ||||||
| 07 | 21:53 | W 6 | 16.09 | Fair | CLR | 26.1 | 22.2 | 79% | 28 | 76.1 | 1014.4 | ||||||
| 07 | 20:53 | W 7 | 16.09 | Fair | CLR | 27.2 | 20.6 | 67% | 29 | 76.1 | 1014.3 | ||||||
| 07 | 19:53 | W 13 | 16.09 | Fair | CLR | 28.9 | 19.4 | 33.3 | 28.9 | 57% | 30 | 76.1 | 1014.3 | ||||
| 07 | 18:53 | W 15 | 16.09 | Fair | CLR | 30.6 | 18.3 | 48% | 32 | 76.07 | 1013.9 | ||||||
| 07 | 17:53 | SW 15 | 16.09 | Fair | CLR | 31.7 | 18.3 | 45% | 33 | 76.07 | 1013.8 | ||||||
| 07 | 16:53 | W 15 | 16.09 | Fair | CLR | 32.2 | 17.8 | 42% | 33 | 76.07 | 1013.8 | ||||||
| 07 | 15:53 | W 13 | 16.09 | Fair | CLR | 33.3 | 15 | 33% | 33 | 76.1 | 1014.2 | ||||||
| 07 | 14:53 | W 20 | 16.09 | Fair | CLR | 32.2 | 17.8 | 42% | 33 | 76.15 | 1015.0 | ||||||
| 07 | 13:53 | W 17 G 33 | 16.09 | Fair | CLR | 31.7 | 20 | 31.7 | 23.3 | 50% | 34 | 76.23 | 1015.9 | ||||
| 07 | 12:53 | SW 17 | 16.09 | Fair | CLR | 31.1 | 21.1 | 55% | 34 | 76.25 | 1016.3 | ||||||
| Date | Time (edt) | Wind (kph) | Vis. (km) | Weather | Sky Cond. | Air | Dwpt | Max. | Min. | Relative Humidity | Wind Chill (°C) | Heat Index (°C) | altimeter (cm) | sea level (mb) | 1 hr | 3 hr | 6 hr |
| 6 hour | |||||||||||||||||
| Temperature (ºC) | Pressure | Precipitation (cm) | |||||||||||||||